Time;durP1;ratioP1;P1;durP2;ratioP2;P2;SDS_P1;SDS_P2;PMS_P1;PMS_P2;Temp;Humidity;BMP_temperature;BMP_pressure;BME280_temperature;BME280_humidity;BME280_pressure;Samples;Min_cycle;Max_cycle;Signal;HPM_P1;HPM_P2
2021/12/28 00:02:23;;;;;;;;;1.00;0.00;;;;;21.02;41.51;98772.09;5058879;28;45499;-54
2021/12/28 00:04:49;;;;;;;;;1.00;1.00;;;;;21.01;41.60;98778.31;5058455;28;45291;-56
2021/12/28 00:07:14;;;;;;;;;1.50;1.00;;;;;20.98;41.74;98771.53;5058575;28;45320;-53
2021/12/28 00:09:40;;;;;;;;;2.00;1.00;;;;;20.97;41.55;98771.66;5058431;28;45387;-54
2021/12/28 00:12:05;;;;;;;;;0.50;0.00;;;;;20.96;42.07;98765.56;5058819;28;45427;-54
2021/12/28 00:14:36;;;;;;;;;0.25;0.25;;;;;20.95;41.75;98765.69;5058384;28;46622;-56
2021/12/28 00:19:46;;;;;;;;;0.50;0.50;;;;;20.92;42.05;98751.00;5058811;28;45326;-55
2021/12/28 00:22:12;;;;;;;;;2.75;1.00;;;;;20.89;41.71;98746.00;5058606;28;45659;-53
2021/12/28 00:24:37;;;;;;;;;0.25;0.25;;;;;20.87;41.86;98739.22;5058226;28;46498;-55
2021/12/28 00:27:04;;;;;;;;;1.00;1.00;;;;;20.85;41.92;98744.66;5058087;28;45308;-57
2021/12/28 00:29:29;;;;;;;;;1.25;1.00;;;;;20.84;42.11;98741.16;5058336;28;45230;-54
2021/12/28 00:31:55;;;;;;;;;0.00;0.00;;;;;20.84;42.19;98732.44;5058415;28;45281;-54
2021/12/28 00:34:20;;;;;;;;;0.00;0.00;;;;;20.83;41.69;98733.41;5056728;28;45516;-55
2021/12/28 00:36:46;;;;;;;;;0.00;0.00;;;;;20.82;42.06;98742.28;5058309;28;45361;-53
2021/12/28 00:39:11;;;;;;;;;2.75;1.00;;;;;20.80;41.70;98736.31;5058048;28;45336;-56
2021/12/28 00:41:37;;;;;;;;;1.00;1.00;;;;;20.78;42.36;98733.84;5057938;28;45381;-54
2021/12/28 00:44:02;;;;;;;;;0.00;0.00;;;;;20.78;41.95;98733.00;5057920;28;46633;-56
2021/12/28 00:46:28;;;;;;;;;0.00;0.00;;;;;20.77;42.39;98734.81;5056640;28;45330;-56
2021/12/28 00:48:54;;;;;;;;;0.50;0.25;;;;;20.77;41.85;98731.34;5058024;28;45361;-55
2021/12/28 00:51:20;;;;;;;;;0.75;0.75;;;;;20.75;42.37;98733.28;5058279;28;45313;-54
2021/12/28 00:53:45;;;;;;;;;1.00;1.00;;;;;20.73;42.26;98730.72;5058156;28;46542;-53
2021/12/28 00:56:10;;;;;;;;;0.00;0.00;;;;;20.70;42.45;98734.47;5057705;28;45347;-53
2021/12/28 00:58:37;;;;;;;;;1.75;1.00;;;;;20.68;41.86;98739.03;5057932;28;45384;-54
2021/12/28 01:01:03;;;;;;;;;0.00;0.00;;;;;20.68;42.16;98739.03;5039956;28;45554;-56
2021/12/28 01:03:28;;;;;;;;;0.00;0.00;;;;;20.68;42.06;98746.94;5057442;28;45419;-54
2021/12/28 01:05:54;;;;;;;;;1.00;0.00;;;;;20.66;42.64;98751.53;5057470;28;45298;-54
2021/12/28 01:08:19;;;;;;;;;0.00;0.00;;;;;20.65;42.04;98743.75;5057853;28;45198;-54
2021/12/28 01:10:49;;;;;;;;;1.00;1.00;;;;;20.64;42.54;98736.81;5057888;28;45540;-56
2021/12/28 01:13:15;;;;;;;;;1.00;1.00;;;;;20.62;42.00;98744.88;5057456;28;46176;-54
2021/12/28 01:15:42;;;;;;;;;0.00;0.00;;;;;20.61;42.04;98740.56;5057499;28;45758;-55
2021/12/28 01:18:08;;;;;;;;;0.00;0.00;;;;;20.60;42.36;98751.25;5057505;28;45171;-53
2021/12/28 01:20:33;;;;;;;;;1.25;0.00;;;;;20.59;42.72;98755.66;5057685;28;45490;-56
2021/12/28 01:22:59;;;;;;;;;0.00;0.00;;;;;20.58;42.79;98753.19;5057203;28;45905;-55
2021/12/28 01:25:25;;;;;;;;;0.00;0.00;;;;;20.55;42.58;98751.66;5057349;28;45475;-56
2021/12/28 01:27:51;;;;;;;;;0.00;0.00;;;;;20.54;42.57;98758.69;5057518;28;45462;-54
2021/12/28 01:30:20;;;;;;;;;0.00;0.00;;;;;20.54;42.70;98755.25;5057844;28;45507;-56
2021/12/28 01:32:46;;;;;;;;;0.75;0.75;;;;;20.52;42.56;98744.03;5057191;28;46231;-54
2021/12/28 01:35:13;;;;;;;;;0.00;0.00;;;;;20.51;42.61;98742.34;5057234;28;45309;-56
2021/12/28 01:37:39;;;;;;;;;0.00;0.00;;;;;20.51;42.18;98742.34;5057425;28;45326;-54
2021/12/28 01:40:07;;;;;;;;;0.00;0.00;;;;;20.50;42.26;98751.22;5057438;28;45462;-54
2021/12/28 01:42:32;;;;;;;;;0.00;0.00;;;;;20.46;42.30;98753.28;5057056;28;45375;-56
2021/12/28 01:44:57;;;;;;;;;1.00;0.00;;;;;20.48;42.95;98758.41;5056984;28;45351;-53
2021/12/28 01:47:23;;;;;;;;;0.00;0.00;;;;;20.46;42.66;98755.94;5038870;28;45387;-52
2021/12/28 01:49:49;;;;;;;;;0.00;0.00;;;;;20.46;42.81;98755.06;5057561;28;45655;-54
2021/12/28 01:52:15;;;;;;;;;0.50;0.00;;;;;20.43;42.35;98761.44;5056960;28;46068;-54
2021/12/28 01:54:40;;;;;;;;;0.50;0.50;;;;;20.44;42.75;98780.72;5037958;28;45465;-52
2021/12/28 01:57:06;;;;;;;;;0.00;0.00;;;;;20.44;42.88;98772.81;5057169;28;45220;-53
2021/12/28 01:59:31;;;;;;;;;0.25;0.00;;;;;20.42;42.52;98780.81;5057198;28;45571;-54
2021/12/28 02:01:58;;;;;;;;;0.00;0.00;;;;;20.42;42.52;98785.28;5056871;28;45488;-53
2021/12/28 02:04:26;;;;;;;;;0.00;0.00;;;;;20.41;42.55;98783.59;5056920;28;45631;-54
2021/12/28 02:06:54;;;;;;;;;0.00;0.00;;;;;20.41;42.50;98791.50;5057018;28;45252;-54
2021/12/28 02:09:20;;;;;;;;;1.00;0.00;;;;;20.40;42.47;98809.06;5057233;28;45182;-54
2021/12/28 02:11:46;;;;;;;;;0.00;0.00;;;;;20.38;42.73;98822.38;5056701;28;45211;-54
2021/12/28 02:14:12;;;;;;;;;1.00;0.00;;;;;20.38;43.04;98819.75;5056729;28;45313;-53
2021/12/28 02:16:40;;;;;;;;;0.00;0.00;;;;;20.38;42.46;98817.09;5056625;28;45198;-53
2021/12/28 02:19:08;;;;;;;;;0.00;0.00;;;;;20.37;42.51;98827.78;5056814;28;45339;-53
2021/12/28 02:21:34;;;;;;;;;0.00;0.00;;;;;20.36;43.27;98824.28;5056364;28;46572;-53
2021/12/28 02:24:02;;;;;;;;;0.00;0.00;;;;;20.36;43.27;98824.28;5056578;28;45174;-54
2021/12/28 02:26:27;;;;;;;;;0.25;0.00;;;;;20.35;42.67;98833.16;5056511;28;45179;-53
2021/12/28 02:28:53;;;;;;;;;0.00;0.00;;;;;20.35;42.96;98842.84;5057016;28;45519;-54
2021/12/28 02:31:18;;;;;;;;;0.00;0.00;;;;;20.33;42.55;98848.25;5056317;28;45603;-55
2021/12/28 02:33:45;;;;;;;;;0.00;0.00;;;;;20.33;43.16;98835.09;5056433;28;45223;-51
2021/12/28 02:36:11;;;;;;;;;0.00;0.00;;;;;20.34;43.04;98851.72;5056405;28;45396;-52
2021/12/28 02:38:36;;;;;;;;;0.25;0.00;;;;;20.32;43.16;98857.13;5056547;28;45368;-54
2021/12/28 02:41:03;;;;;;;;;0.00;0.00;;;;;20.32;43.17;98865.00;5056214;28;45600;-54
2021/12/28 02:43:29;;;;;;;;;0.00;0.00;;;;;20.31;43.24;98867.75;5056237;28;45384;-54
2021/12/28 02:45:57;;;;;;;;;0.75;0.00;;;;;20.30;42.82;98872.19;5056663;28;45300;-54
2021/12/28 02:48:24;;;;;;;;;0.00;0.00;;;;;20.27;42.80;98874.25;5038922;28;45300;-54
2021/12/28 02:50:54;;;;;;;;;0.00;0.00;;;;;20.28;42.73;98892.53;5056207;28;45519;-55
2021/12/28 02:53:21;;;;;;;;;0.00;0.00;;;;;20.28;43.12;98896.97;5056279;28;45230;-58
2021/12/28 02:55:47;;;;;;;;;0.00;0.00;;;;;20.28;43.27;98908.31;5056296;28;45285;-56
2021/12/28 02:58:35;;;;;;;;;2.00;0.00;;;;;20.24;43.20;98914.78;5056372;28;45176;-55
2021/12/28 03:01:14;;;;;;;;;0.00;0.00;;;;;20.25;43.58;98919.09;5037798;28;46497;-56
2021/12/28 03:03:41;;;;;;;;;0.75;0.00;;;;;20.22;43.47;98914.09;5056015;28;45886;-54
2021/12/28 03:06:08;;;;;;;;;0.50;0.50;;;;;20.22;43.50;98933.34;5058095;28;45260;-54
2021/12/28 03:08:37;;;;;;;;;0.25;0.00;;;;;20.22;43.57;98937.78;5059645;28;45676;-54
2021/12/28 03:11:05;;;;;;;;;0.25;0.00;;;;;20.20;43.63;98937.06;5059339;28;46677;-55
2021/12/28 03:13:37;;;;;;;;;0.00;0.00;;;;;20.18;43.13;98936.34;5059581;28;45650;-54
2021/12/28 03:16:03;;;;;;;;;0.00;0.00;;;;;20.20;43.55;98944.97;5059352;28;45484;-56
2021/12/28 03:18:28;;;;;;;;;0.00;0.00;;;;;20.18;43.06;98942.44;5059717;28;45305;-55
2021/12/28 03:20:54;;;;;;;;;0.00;0.00;;;;;20.18;43.21;98946.88;5059420;28;46146;-54
2021/12/28 03:23:22;;;;;;;;;0.00;0.00;;;;;20.16;43.13;98943.53;5059333;28;45269;-55
2021/12/28 03:25:48;;;;;;;;;0.75;0.00;;;;;20.16;43.63;98939.13;5059397;28;45215;-55
2021/12/28 03:28:28;;;;;;;;;1.00;0.00;;;;;20.16;43.11;98948.81;5059245;28;45605;-54
2021/12/28 03:30:56;;;;;;;;;0.50;0.00;;;;;20.16;43.51;98948.81;5059450;28;45421;-54
2021/12/28 03:33:24;;;;;;;;;0.00;0.00;;;;;20.14;43.55;98959.47;5040854;28;45741;-54
2021/12/28 03:35:49;;;;;;;;;0.00;0.00;;;;;20.15;43.14;98961.13;5059241;28;45320;-56
2021/12/28 03:38:15;;;;;;;;;0.00;0.00;;;;;20.15;43.21;98957.66;5059330;28;45525;-56
2021/12/28 03:40:41;;;;;;;;;0.00;0.00;;;;;20.13;43.35;98954.31;5058961;28;46290;-55
2021/12/28 03:43:07;;;;;;;;;0.00;0.00;;;;;20.13;43.60;98970.94;5058986;28;45276;-58
2021/12/28 03:45:33;;;;;;;;;0.00;0.00;;;;;20.14;43.81;98974.38;5059121;28;45834;-56
2021/12/28 03:47:58;;;;;;;;;0.00;0.00;;;;;20.14;43.27;98974.38;5057983;28;45702;-57
2021/12/28 03:50:25;;;;;;;;;0.00;0.00;;;;;20.16;43.60;98969.84;5059201;28;46334;-55
2021/12/28 03:52:55;;;;;;;;;0.00;0.00;;;;;20.21;43.44;98973.75;5058841;28;45643;-56
2021/12/28 03:55:23;;;;;;;;;0.00;0.00;;;;;20.24;43.55;98972.66;5059056;28;45486;-55
2021/12/28 03:57:49;;;;;;;;;0.00;0.00;;;;;20.29;43.45;98985.41;5058093;28;45370;-55
2021/12/28 04:00:17;;;;;;;;;2.00;1.00;;;;;20.33;43.44;98971.91;5058622;28;46656;-57
2021/12/28 04:02:42;;;;;;;;;0.00;0.00;;;;;20.38;43.04;98971.53;5058666;28;45260;-57
2021/12/28 04:05:09;;;;;;;;;0.00;0.00;;;;;20.43;43.63;98986.91;5058762;28;45748;-57
2021/12/28 04:07:35;;;;;;;;;0.00;0.00;;;;;20.49;43.01;98983.75;5058698;28;45471;-55
2021/12/28 04:10:03;;;;;;;;;1.00;0.00;;;;;20.50;43.26;98983.66;5058411;28;46054;-57
2021/12/28 04:12:30;;;;;;;;;0.00;0.00;;;;;20.55;43.04;98985.88;5058857;28;45411;-58
2021/12/28 04:14:57;;;;;;;;;0.00;0.00;;;;;20.59;43.40;98989.09;5058886;28;45485;-57
2021/12/28 04:17:25;;;;;;;;;0.25;0.00;;;;;20.62;43.38;98991.44;5057886;28;45272;-58
2021/12/28 04:19:51;;;;;;;;;0.00;0.00;;;;;20.66;43.30;98988.44;5058253;28;46261;-57
2021/12/28 04:22:16;;;;;;;;;0.00;0.00;;;;;20.66;43.43;98996.34;5058379;28;45439;-56
2021/12/28 04:24:42;;;;;;;;;1.00;1.00;;;;;20.69;43.28;98988.16;5058542;28;45313;-60
2021/12/28 04:27:08;;;;;;;;;0.00;0.00;;;;;20.72;43.35;98983.59;5058503;28;45296;-59
2021/12/28 04:29:33;;;;;;;;;0.00;0.00;;;;;20.74;42.72;99005.38;5057343;28;45418;-56
2021/12/28 04:31:59;;;;;;;;;0.00;0.00;;;;;20.74;43.11;99000.94;5040435;28;45530;-55
2021/12/28 04:34:24;;;;;;;;;0.00;0.00;;;;;20.78;42.92;99022.63;5058369;28;45319;-55
2021/12/28 04:36:50;;;;;;;;;0.00;0.00;;;;;20.78;43.36;99020.81;5058387;28;45291;-56
2021/12/28 04:39:16;;;;;;;;;0.00;0.00;;;;;20.79;43.23;99008.47;5057906;28;46279;-55
2021/12/28 04:41:42;;;;;;;;;0.25;0.00;;;;;20.80;42.85;99024.13;5057929;28;45237;-57
2021/12/28 04:44:11;;;;;;;;;1.75;0.25;;;;;20.80;43.14;99016.25;5058053;28;45359;-58
2021/12/28 04:46:36;;;;;;;;;0.00;0.00;;;;;20.81;43.26;99017.91;5058288;28;45434;-56
2021/12/28 04:49:02;;;;;;;;;0.00;0.00;;;;;20.82;43.06;99013.47;5057711;28;46855;-55
2021/12/28 04:51:27;;;;;;;;;0.00;0.00;;;;;20.81;43.36;99001.25;5058115;28;45285;-57
2021/12/28 04:53:56;;;;;;;;;0.00;0.00;;;;;20.83;43.20;99020.41;5057920;28;45454;-59
2021/12/28 04:56:22;;;;;;;;;0.50;0.50;;;;;20.82;43.07;99003.78;5058195;28;45639;-58
2021/12/28 04:58:48;;;;;;;;;1.00;0.00;;;;;20.82;43.14;99009.06;5057658;28;45422;-54
2021/12/28 05:01:13;;;;;;;;;1.00;1.00;;;;;20.83;43.32;99009.88;5057682;28;45261;-56
2021/12/28 05:03:39;;;;;;;;;0.00;0.00;;;;;20.82;42.86;99010.84;5057869;28;45367;-54
2021/12/28 05:06:04;;;;;;;;;0.00;0.00;;;;;20.82;42.76;99024.00;5057773;28;45175;-57
2021/12/28 05:08:30;;;;;;;;;0.00;0.00;;;;;20.82;43.23;99032.75;5039586;28;46711;-54
2021/12/28 05:10:55;;;;;;;;;1.00;0.00;;;;;20.81;43.17;99032.88;5057551;28;45372;-56
2021/12/28 05:13:22;;;;;;;;;1.00;0.00;;;;;20.80;43.26;99041.72;5057618;28;45414;-57
2021/12/28 05:15:49;;;;;;;;;0.00;0.00;;;;;20.80;42.62;99041.72;5039669;28;45456;-53
2021/12/28 05:18:14;;;;;;;;;0.00;0.00;;;;;20.80;42.94;99042.56;5057391;28;46058;-54
2021/12/28 05:20:40;;;;;;;;;0.00;0.00;;;;;20.78;43.15;99059.47;5057346;28;45272;-56
2021/12/28 05:23:05;;;;;;;;;0.00;0.00;;;;;20.78;42.72;99059.47;5057437;28;45485;-54
2021/12/28 05:25:32;;;;;;;;;0.00;0.00;;;;;20.77;42.89;99068.34;5057902;28;45324;-53
2021/12/28 05:27:57;;;;;;;;;0.00;0.00;;;;;20.77;43.30;99065.69;5056623;28;46123;-56
2021/12/28 05:30:23;;;;;;;;;0.00;0.00;;;;;20.75;42.86;99070.25;5056445;28;45311;-55
2021/12/28 05:32:48;;;;;;;;;0.00;0.00;;;;;20.74;42.77;99089.59;5039344;28;45431;-55
2021/12/28 05:35:14;;;;;;;;;0.00;0.00;;;;;20.75;43.01;99084.25;5057508;28;45347;-56
2021/12/28 05:37:39;;;;;;;;;0.00;0.00;;;;;20.73;43.14;99080.03;5057098;28;46354;-56
2021/12/28 05:40:07;;;;;;;;;0.00;0.00;;;;;20.72;42.92;99089.75;5057134;28;45434;-56
2021/12/28 05:42:33;;;;;;;;;0.00;0.00;;;;;20.70;42.87;99087.22;5057401;28;45494;-56
2021/12/28 05:44:58;;;;;;;;;0.00;0.00;;;;;20.71;42.86;99085.44;5057283;28;45386;-56
2021/12/28 05:47:24;;;;;;;;;0.00;0.00;;;;;20.69;43.16;99098.72;5056805;28;45392;-56
2021/12/28 05:49:49;;;;;;;;;0.00;0.00;;;;;20.67;43.01;99084.84;5056904;28;45317;-54
2021/12/28 05:52:14;;;;;;;;;0.50;0.00;;;;;20.68;42.87;99101.50;5057130;28;45510;-55
2021/12/28 05:54:40;;;;;;;;;0.00;0.00;;;;;20.66;42.81;99106.03;5057262;28;45563;-55
2021/12/28 05:57:07;;;;;;;;;1.00;1.00;;;;;20.65;43.13;99112.28;5056677;28;45245;-55
2021/12/28 05:59:33;;;;;;;;;0.00;0.00;;;;;20.63;43.41;99101.88;5057122;28;45388;-56
2021/12/28 06:01:58;;;;;;;;;0.00;0.00;;;;;20.63;43.36;99108.91;5056940;28;45229;-57
2021/12/28 06:04:23;;;;;;;;;0.00;0.00;;;;;20.63;43.46;99111.56;5039017;28;45243;-57
2021/12/28 06:06:49;;;;;;;;;0.00;0.00;;;;;20.60;42.94;99119.72;5056463;28;45409;-54
2021/12/28 06:09:14;;;;;;;;;1.50;0.00;;;;;20.59;43.00;99118.88;5056562;28;45220;-56
2021/12/28 06:11:40;;;;;;;;;2.00;0.00;;;;;20.58;43.48;99117.19;5056754;28;45467;-56
2021/12/28 06:14:05;;;;;;;;;0.00;0.00;;;;;20.58;43.23;99126.91;5057194;28;45548;-56
2021/12/28 06:16:30;;;;;;;;;0.00;0.00;;;;;20.55;43.55;99133.28;5056367;28;47346;-54
2021/12/28 06:18:56;;;;;;;;;0.00;0.00;;;;;20.55;42.96;99146.44;5056545;28;45470;-56
2021/12/28 06:21:22;;;;;;;;;0.00;0.00;;;;;20.53;43.52;99137.81;5056738;28;45395;-57
2021/12/28 06:23:48;;;;;;;;;1.00;0.00;;;;;20.53;43.26;99146.53;5056814;28;45330;-55
2021/12/28 06:26:15;;;;;;;;;0.00;0.00;;;;;20.53;43.02;99148.34;5056054;28;45564;-54
2021/12/28 06:28:40;;;;;;;;;1.00;0.00;;;;;20.52;43.57;99144.03;5056464;28;45673;-54
2021/12/28 06:31:05;;;;;;;;;0.00;0.00;;;;;20.49;43.12;99163.56;5056819;28;45343;-54
2021/12/28 06:33:31;;;;;;;;;1.00;0.00;;;;;20.50;43.31;99167.00;5056554;28;45327;-55
2021/12/28 06:35:56;;;;;;;;;2.75;0.00;;;;;20.50;43.38;99167.00;5056208;28;46385;-56
2021/12/28 06:38:22;;;;;;;;;0.00;0.00;;;;;20.49;43.09;99175.88;5056255;28;45228;-55
2021/12/28 06:40:48;;;;;;;;;1.00;1.00;;;;;20.48;43.20;99196.09;5058047;28;45244;-54
2021/12/28 06:43:14;;;;;;;;;0.00;0.00;;;;;20.48;43.46;99192.63;5060055;28;45261;-55
2021/12/28 06:45:39;;;;;;;;;0.00;0.00;;;;;20.47;43.62;99207.59;5041743;28;47195;-54
2021/12/28 06:48:05;;;;;;;;;0.00;0.00;;;;;20.48;43.05;99213.66;5060163;28;45428;-55
2021/12/28 06:50:31;;;;;;;;;0.00;0.00;;;;;20.44;43.42;99197.28;5059951;28;45474;-56
2021/12/28 06:52:56;;;;;;;;;1.00;0.00;;;;;20.35;43.61;99192.78;5060097;28;45536;-55
2021/12/28 06:55:22;;;;;;;;;0.50;0.50;;;;;20.43;43.42;99207.97;5059593;28;45838;-55
2021/12/28 06:57:47;;;;;;;;;0.00;0.00;;;;;20.43;43.59;99210.59;5059687;28;45490;-54
2021/12/28 07:00:16;;;;;;;;;0.00;0.00;;;;;20.41;43.47;99202.78;5059678;28;45822;-56
2021/12/28 07:02:42;;;;;;;;;0.00;0.00;;;;;20.41;43.39;99200.16;5059948;28;45637;-54
2021/12/28 07:05:09;;;;;;;;;0.00;0.00;;;;;20.39;43.44;99200.31;5059643;28;45672;-54
2021/12/28 07:07:35;;;;;;;;;0.00;0.00;;;;;20.38;43.05;99203.88;5059666;28;45626;-56
2021/12/28 07:10:01;;;;;;;;;0.00;0.00;;;;;20.36;43.01;99208.44;5059514;28;45347;-55
2021/12/28 07:12:26;;;;;;;;;0.00;0.00;;;;;20.35;43.01;99205.94;5059589;28;45559;-56
2021/12/28 07:14:53;;;;;;;;;0.00;0.00;;;;;20.35;43.27;99212.03;5059337;28;46140;-58
2021/12/28 07:17:18;;;;;;;;;0.00;0.00;;;;;20.35;43.13;99209.38;5059373;28;45765;-55
2021/12/28 07:19:43;;;;;;;;;0.00;0.00;;;;;20.33;43.29;99203.44;5041419;28;45474;-57
2021/12/28 07:22:09;;;;;;;;;0.00;0.00;;;;;20.33;43.02;99194.69;5060054;28;45786;-54
2021/12/28 07:24:34;;;;;;;;;1.00;0.00;;;;;20.33;43.56;99202.59;5058226;28;46335;-56
2021/12/28 07:27:00;;;;;;;;;0.00;0.00;;;;;20.31;43.52;99200.09;5059228;28;45360;-56
2021/12/28 07:29:25;;;;;;;;;0.00;0.00;;;;;20.32;43.15;99217.56;5059615;28;45544;-54
2021/12/28 07:31:51;;;;;;;;;0.00;0.00;;;;;20.30;43.30;99219.47;5059470;28;45331;-57
2021/12/28 07:34:17;;;;;;;;;0.00;0.00;;;;;20.30;43.61;99224.72;5058927;28;46366;-54
2021/12/28 07:36:44;;;;;;;;;1.75;0.00;;;;;20.29;43.43;99223.06;5058990;28;45628;-54
2021/12/28 07:39:09;;;;;;;;;0.00;0.00;;;;;20.28;43.59;99220.56;5059365;28;45241;-57
2021/12/28 07:41:35;;;;;;;;;1.00;0.00;;;;;20.27;43.26;99230.22;5059472;28;45467;-56
2021/12/28 07:44:00;;;;;;;;;1.00;0.00;;;;;20.25;43.38;99229.50;5058985;28;46245;-54
2021/12/28 07:46:26;;;;;;;;;1.00;0.00;;;;;20.26;43.10;99233.00;5058729;28;45379;-54
2021/12/28 07:48:51;;;;;;;;;0.00;0.00;;;;;20.24;43.54;99241.84;5059128;28;45403;-57
2021/12/28 07:51:17;;;;;;;;;0.00;0.00;;;;;20.23;43.03;99252.47;5058300;28;45427;-56
2021/12/28 07:53:42;;;;;;;;;0.75;0.00;;;;;20.23;43.45;99268.25;5058100;28;45441;-56
2021/12/28 07:56:08;;;;;;;;;0.00;0.00;;;;;20.21;43.46;99268.38;5059060;28;45340;-55
2021/12/28 07:58:33;;;;;;;;;0.00;0.00;;;;;20.21;42.95;99270.19;5058812;28;45350;-56
2021/12/28 08:00:59;;;;;;;;;2.00;0.00;;;;;20.21;42.88;99278.91;5058867;28;45304;-54
2021/12/28 08:03:25;;;;;;;;;0.00;0.00;;;;;20.20;42.81;99269.34;5058551;28;46008;-54
2021/12/28 08:05:51;;;;;;;;;2.50;0.00;;;;;20.19;43.22;99279.97;5058622;28;45671;-55
2021/12/28 08:08:17;;;;;;;;;0.00;0.00;;;;;20.16;43.47;99275.81;5058451;28;45304;-55
2021/12/28 08:10:43;;;;;;;;;0.00;0.00;;;;;20.17;43.12;99281.91;5058780;28;45289;-55
2021/12/28 08:13:09;;;;;;;;;0.50;0.50;;;;;20.17;43.04;99279.25;5058536;28;46497;-56
2021/12/28 08:15:34;;;;;;;;;0.00;0.00;;;;;20.16;43.18;99282.84;5058396;28;45317;-58
2021/12/28 08:18:03;;;;;;;;;0.00;0.00;;;;;20.17;43.24;99292.41;5058453;28;45230;-57
2021/12/28 08:20:29;;;;;;;;;0.25;0.25;;;;;20.18;43.37;99291.47;5058437;28;45278;-53
2021/12/28 08:22:56;;;;;;;;;2.00;1.00;;;;;20.19;43.79;99311.56;5058096;28;45406;-55
2021/12/28 08:25:22;;;;;;;;;1.75;0.25;;;;;20.18;43.88;99320.41;5058143;28;45744;-56
2021/12/28 08:27:48;;;;;;;;;1.50;0.50;;;;;20.16;43.99;99317.03;5058221;28;45397;-57
2021/12/28 08:30:14;;;;;;;;;1.00;0.00;;;;;20.14;43.52;99322.44;5058495;28;45214;-55
2021/12/28 08:32:40;;;;;;;;;0.50;0.25;;;;;20.14;43.83;99313.69;5058389;28;45556;-58
2021/12/28 08:35:06;;;;;;;;;1.00;0.00;;;;;20.12;43.59;99324.34;5039995;28;45347;-56
2021/12/28 08:37:32;;;;;;;;;0.75;0.00;;;;;20.12;44.06;99334.88;5058026;28;45392;-56
2021/12/28 08:39:58;;;;;;;;;0.50;0.00;;;;;20.12;43.59;99352.44;5058210;28;45351;-55
2021/12/28 08:42:24;;;;;;;;;0.25;0.00;;;;;20.11;43.78;99356.03;5057989;28;46523;-56
2021/12/28 08:44:50;;;;;;;;;0.50;0.50;;;;;20.07;43.57;99353.63;5057984;28;45290;-57
2021/12/28 08:47:16;;;;;;;;;0.50;0.00;;;;;20.08;43.65;99357.94;5039962;28;45371;-56
2021/12/28 08:49:41;;;;;;;;;0.00;0.00;;;;;20.08;43.59;99359.72;5058557;28;45367;-57
2021/12/28 08:52:07;;;;;;;;;0.00;0.00;;;;;20.07;44.03;99366.78;5057621;28;47251;-56
2021/12/28 08:54:33;;;;;;;;;3.00;0.00;;;;;20.07;43.99;99364.16;5057802;28;45268;-55
2021/12/28 08:56:59;;;;;;;;;0.00;0.00;;;;;20.06;43.69;99359.84;5057934;28;45352;-56
2021/12/28 08:59:24;;;;;;;;;1.00;0.25;;;;;20.06;43.88;99359.84;5058229;28;45431;-58
2021/12/28 09:01:50;;;;;;;;;1.00;0.00;;;;;20.07;43.92;99358.88;5057569;28;45350;-58
2021/12/28 09:04:17;;;;;;;;;3.00;0.00;;;;;20.07;43.78;99364.16;5057304;28;45750;-55
2021/12/28 09:06:45;;;;;;;;;0.00;0.00;;;;;20.06;44.24;99359.84;5058034;28;45488;-56
2021/12/28 09:09:10;;;;;;;;;0.25;0.25;;;;;20.04;44.21;99361.75;5057860;28;45364;-55
2021/12/28 09:11:36;;;;;;;;;0.50;0.50;;;;;20.05;44.15;99365.22;5057468;28;45360;-55
2021/12/28 09:14:01;;;;;;;;;0.00;0.00;;;;;20.05;44.06;99358.16;5057632;28;45254;-54
2021/12/28 09:16:27;;;;;;;;;2.00;1.00;;;;;20.04;44.15;99372.28;5039370;28;45253;-57
2021/12/28 09:18:52;;;;;;;;;0.00;0.00;;;;;20.02;44.25;99363.66;5057861;28;45559;-55
2021/12/28 09:21:18;;;;;;;;;2.50;0.00;;;;;20.03;43.93;99370.59;5057307;28;45340;-57
2021/12/28 09:23:43;;;;;;;;;0.00;0.00;;;;;20.03;44.12;99364.50;5057781;28;45369;-58
2021/12/28 09:26:08;;;;;;;;;0.00;0.00;;;;;20.02;43.95;99363.66;5057549;28;45439;-57
2021/12/28 09:28:34;;;;;;;;;0.00;0.00;;;;;20.02;44.11;99368.91;5057627;28;45162;-56
2021/12/28 09:31:00;;;;;;;;;1.25;0.00;;;;;20.02;43.93;99379.44;5057199;28;45432;-59
2021/12/28 09:33:25;;;;;;;;;1.00;1.00;;;;;20.01;43.56;99377.75;5057477;28;45699;-55
2021/12/28 09:35:53;;;;;;;;;0.50;0.50;;;;;20.01;44.02;99379.56;5057436;28;45512;-55
2021/12/28 09:38:21;;;;;;;;;0.50;0.00;;;;;20.01;43.74;99366.41;5057567;28;45349;-56
2021/12/28 09:40:47;;;;;;;;;1.25;0.50;;;;;19.99;44.23;99371.81;5057120;28;46183;-56
2021/12/28 09:43:13;;;;;;;;;0.00;0.00;;;;;20.00;44.09;99376.09;5057421;28;45697;-57
2021/12/28 09:45:39;;;;;;;;;2.00;0.25;;;;;20.03;44.14;99391.63;5057241;28;45177;-56
2021/12/28 09:48:06;;;;;;;;;1.50;0.50;;;;;20.05;43.77;99389.72;5057162;28;45170;-54
2021/12/28 09:50:34;;;;;;;;;0.00;0.00;;;;;20.08;44.26;99384.25;5038746;28;47212;-56
2021/12/28 09:53:00;;;;;;;;;0.00;0.00;;;;;20.13;43.75;99388.28;5056855;28;45291;-54
2021/12/28 09:55:26;;;;;;;;;0.75;0.00;;;;;20.17;44.04;99395.00;5056996;28;45398;-56
2021/12/28 09:57:52;;;;;;;;;0.00;0.00;;;;;20.22;44.01;99390.25;5057278;28;45316;-55
2021/12/28 10:00:21;;;;;;;;;1.50;0.25;;;;;20.27;43.57;99406.50;5056649;28;45568;-53
2021/12/28 10:02:46;;;;;;;;;2.25;0.00;;;;;20.32;43.78;99395.63;5056962;28;45422;-57
2021/12/28 10:05:17;;;;;;;;;0.00;0.00;;;;;20.36;43.21;99405.78;5038829;28;45292;-56
2021/12/28 10:07:49;;;;;;;;;2.00;2.00;;;;;20.41;43.77;99404.59;5056754;28;45557;-56
2021/12/28 10:10:15;;;;;;;;;0.00;0.00;;;;;20.45;43.56;99408.69;5056750;28;45568;-58
2021/12/28 10:12:44;;;;;;;;;0.00;0.00;;;;;20.49;43.47;99412.72;5056890;28;45395;-57
2021/12/28 10:15:20;;;;;;;;;2.00;0.50;;;;;20.52;42.83;99415.94;5056086;28;45178;-57
2021/12/28 10:17:49;;;;;;;;;1.00;0.00;;;;;20.55;43.31;99407.00;5057210;28;45395;-55
2021/12/28 10:20:37;;;;;;;;;0.00;0.00;;;;;20.61;42.79;99411.78;5056826;28;46642;-56
2021/12/28 10:23:09;;;;;;;;;0.00;0.00;;;;;20.65;42.89;99428.16;5056736;28;45679;-56
2021/12/28 10:25:47;;;;;;;;;4.50;1.00;;;;;20.66;42.39;99435.97;5056522;28;45427;-56
2021/12/28 10:28:19;;;;;;;;;3.00;0.25;;;;;20.70;42.55;99436.53;5056701;28;45373;-56
2021/12/28 10:30:48;;;;;;;;;0.00;0.00;;;;;20.73;43.04;99428.38;5056517;28;46658;-57
2021/12/28 10:33:16;;;;;;;;;2.25;1.00;;;;;20.77;42.90;99436.94;5056294;28;45379;-56
2021/12/28 10:35:44;;;;;;;;;2.00;0.00;;;;;20.78;42.35;99439.44;5056312;28;45379;-58
2021/12/28 10:38:14;;;;;;;;;0.00;0.00;;;;;20.81;42.70;99431.31;5056577;28;45477;-57
2021/12/28 10:40:49;;;;;;;;;2.75;1.25;;;;;20.84;42.72;99440.75;5038070;28;46405;-57
2021/12/28 10:43:23;;;;;;;;;2.25;0.00;;;;;20.87;42.59;99439.66;5056567;28;45592;-56
2021/12/28 10:45:50;;;;;;;;;1.25;1.25;;;;;20.89;42.64;99450.94;5056646;28;45289;-57
2021/12/28 10:48:25;;;;;;;;;0.00;0.00;;;;;20.90;42.51;99450.78;5056565;28;45383;-58
2021/12/28 10:51:01;;;;;;;;;2.50;1.00;;;;;20.92;42.45;99462.03;5055917;28;46612;-54
2021/12/28 10:53:38;;;;;;;;;0.25;0.25;;;;;20.92;42.52;99445.41;5055952;28;45320;-57
2021/12/28 10:56:09;;;;;;;;;3.00;2.00;;;;;20.92;42.35;99451.50;5056190;28;45470;-54
2021/12/28 10:58:40;;;;;;;;;3.25;1.50;;;;;20.92;41.96;99451.50;5056384;28;45556;-56
2021/12/28 11:01:27;;;;;;;;;3.00;1.00;;;;;20.92;42.23;99458.59;5055826;28;47555;-55
2021/12/28 11:03:58;;;;;;;;;0.50;0.00;;;;;20.91;42.15;99455.09;5055941;28;45889;-55
2021/12/28 11:06:32;;;;;;;;;0.00;0.00;;;;;20.90;42.12;99466.59;5056070;28;45293;-54
2021/12/28 11:09:11;;;;;;;;;0.25;0.25;;;;;20.89;41.70;99456.19;5056098;28;45483;-56
2021/12/28 11:11:39;;;;;;;;;2.75;1.00;;;;;20.87;41.65;99464.22;5055646;28;47357;-56
2021/12/28 11:14:07;;;;;;;;;5.25;2.75;;;;;20.85;41.58;99455.59;5055750;28;45245;-54
2021/12/28 11:16:33;;;;;;;;;3.75;2.00;;;;;20.84;41.66;99460.00;5055923;28;45351;-55
2021/12/28 11:19:04;;;;;;;;;2.00;1.75;;;;;20.83;41.94;99468.03;5056011;28;45350;-55
2021/12/28 11:21:33;;;;;;;;;2.50;1.75;;;;;20.83;41.96;99462.78;5055846;28;45342;-55
2021/12/28 11:24:17;;;;;;;;;1.00;1.00;;;;;20.80;41.55;99487.56;5055603;28;45327;-55
2021/12/28 11:26:45;;;;;;;;;2.75;1.00;;;;;20.80;41.45;99489.34;5057225;28;45359;-56
2021/12/28 11:29:13;;;;;;;;;1.50;0.00;;;;;20.79;41.90;99487.66;5059321;28;45584;-57
2021/12/28 11:31:38;;;;;;;;;0.25;0.25;;;;;20.78;41.58;99493.91;5040962;28;48155;-56
2021/12/28 11:34:11;;;;;;;;;1.33;1.33;;;;;20.78;41.76;99509.72;5059013;28;45339;-54
2021/12/28 11:36:49;;;;;;;;;3.00;1.50;;;;;20.76;41.79;99498.47;5059174;28;45221;-57